Time;durP1;ratioP1;P1;durP2;ratioP2;P2;SDS_P1;SDS_P2;PMS_P1;PMS_P2;Temp;Humidity;BMP_temperature;BMP_pressure;BME280_temperature;BME280_humidity;BME280_pressure;Samples;Min_cycle;Max_cycle;Signal;HPM_P1;HPM_P2
2022/07/01 00:01:30;;;;;;;13.15;5.05;;;;;;;;;;5007840;28;20087;-76
2022/07/01 00:03:56;;;;;;;12.40;5.05;;;;;;;;;;5026501;28;20133;-79
2022/07/01 00:06:22;;;;;;;14.43;5.15;;;;;;;;;;5021087;28;20029;-78
2022/07/01 00:08:48;;;;;;;10.98;5.10;;;;;;;;;;5025582;28;20113;-75
2022/07/01 00:11:15;;;;;;;13.98;4.82;;;;;;;;;;5021288;28;20046;-76
2022/07/01 00:13:41;;;;;;;14.23;4.88;;;;;;;;;;5027668;28;20021;-77
2022/07/01 00:16:07;;;;;;;13.52;5.30;;;;;;;;;;5027664;28;20025;-76
2022/07/01 00:18:33;;;;;;;17.30;5.22;;;;;;;;;;5024291;28;20105;-76
2022/07/01 00:21:01;;;;;;;13.68;5.20;;;;;;;;;;5020341;28;20025;-76
2022/07/01 00:23:27;;;;;;;14.70;5.15;;;;;;;;;;5024064;28;20029;-75
2022/07/01 00:25:53;;;;;;;12.25;5.57;;;;;;;;;;5020121;28;20034;-75
2022/07/01 00:28:20;;;;;;;13.20;4.93;;;;;;;;;;5027513;28;20033;-76
2022/07/01 00:30:46;;;;;;;14.88;5.30;;;;;;;;;;5025164;28;20030;-75
2022/07/01 00:33:12;;;;;;;11.95;5.53;;;;;;;;;;5020696;28;20079;-76
2022/07/01 00:35:38;;;;;;;13.95;4.90;;;;;;;;;;5028111;28;20430;-75
2022/07/01 00:38:04;;;;;;;13.48;4.97;;;;;;;;;;5027189;28;20372;-76
2022/07/01 00:40:30;;;;;;;11.57;5.05;;;;;;;;;;5021860;28;20164;-75
2022/07/01 00:42:56;;;;;;;14.32;4.90;;;;;;;;;;5022147;28;20515;-78
2022/07/01 00:45:22;;;;;;;12.25;4.90;;;;;;;;;;5022736;28;20100;-77
2022/07/01 00:47:50;;;;;;;14.07;4.85;;;;;;;;;;5025839;28;20240;-77
2022/07/01 00:50:16;;;;;;;9.68;4.57;;;;;;;;;;5014436;28;20506;-75
2022/07/01 00:52:43;;;;;;;12.77;5.30;;;;;;;;;;5027616;28;20037;-76
2022/07/01 00:55:11;;;;;;;10.32;5.13;;;;;;;;;;5030528;28;20100;-76
2022/07/01 00:57:37;;;;;;;12.38;5.10;;;;;;;;;;5028327;28;20034;-75
2022/07/01 01:00:05;;;;;;;11.43;4.78;;;;;;;;;;5021327;28;20036;-75
2022/07/01 01:02:31;;;;;;;13.77;5.30;;;;;;;;;;5020019;28;20038;-77
2022/07/01 01:04:57;;;;;;;11.27;5.00;;;;;;;;;;5027303;28;20080;-75
2022/07/01 01:07:24;;;;;;;14.20;5.28;;;;;;;;;;5028307;28;20389;-77
2022/07/01 01:09:51;;;;;;;13.40;5.28;;;;;;;;;;5019605;28;20021;-76
2022/07/01 01:12:17;;;;;;;11.27;4.60;;;;;;;;;;5027984;28;20386;-75
2022/07/01 01:14:47;;;;;;;13.27;4.95;;;;;;;;;;5030162;28;20033;-75
2022/07/01 01:17:13;;;;;;;10.68;4.97;;;;;;;;;;5017718;28;20029;-75
2022/07/01 01:19:40;;;;;;;18.35;6.10;;;;;;;;;;5025433;28;20021;-75
2022/07/01 01:22:06;;;;;;;14.60;4.95;;;;;;;;;;5017548;28;20022;-75
2022/07/01 01:24:32;;;;;;;15.73;5.30;;;;;;;;;;5020960;28;20022;-76
2022/07/01 01:26:58;;;;;;;13.75;5.15;;;;;;;;;;5023674;28;20052;-75
2022/07/01 01:29:25;;;;;;;11.95;4.82;;;;;;;;;;5019408;28;20030;-76
2022/07/01 01:31:51;;;;;;;11.18;5.50;;;;;;;;;;5023097;28;20045;-76
2022/07/01 01:34:17;;;;;;;12.70;5.38;;;;;;;;;;5028223;28;20026;-75
2022/07/01 01:36:43;;;;;;;14.90;5.22;;;;;;;;;;5023848;28;20033;-74
2022/07/01 01:39:14;;;;;;;9.80;4.88;;;;;;;;;;5019252;28;20087;-74
2022/07/01 01:41:40;;;;;;;14.30;5.57;;;;;;;;;;5028160;28;20082;-74
2022/07/01 01:44:06;;;;;;;11.68;5.53;;;;;;;;;;5025219;28;20514;-76
2022/07/01 01:46:32;;;;;;;11.23;4.93;;;;;;;;;;5019820;28;20460;-77
2022/07/01 01:48:58;;;;;;;13.70;5.65;;;;;;;;;;5023327;28;20041;-75
2022/07/01 01:51:25;;;;;;;13.60;5.60;;;;;;;;;;5028923;28;20048;-77
2022/07/01 01:53:51;;;;;;;10.75;4.78;;;;;;;;;;5020703;28;20052;-75
2022/07/01 01:56:17;;;;;;;15.48;5.82;;;;;;;;;;5028595;28;20029;-74
2022/07/01 01:58:44;;;;;;;11.15;5.13;;;;;;;;;;5014091;28;20026;-76
2022/07/01 02:01:13;;;;;;;12.95;5.30;;;;;;;;;;5018219;28;20475;-74
2022/07/01 02:03:39;;;;;;;12.38;5.38;;;;;;;;;;5028471;28;20045;-76
2022/07/01 02:06:06;;;;;;;11.85;4.80;;;;;;;;;;5023381;28;20096;-75
2022/07/01 02:08:32;;;;;;;9.15;5.25;;;;;;;;;;5020352;28;20026;-75
2022/07/01 02:10:59;;;;;;;10.65;5.50;;;;;;;;;;5023486;28;20499;-74
2022/07/01 02:13:25;;;;;;;17.30;5.82;;;;;;;;;;5018153;28;20036;-74
2022/07/01 02:15:51;;;;;;;13.52;5.65;;;;;;;;;;5026704;28;20028;-76
2022/07/01 02:18:17;;;;;;;11.93;5.60;;;;;;;;;;5023012;28;20074;-76
2022/07/01 02:20:43;;;;;;;13.75;5.80;;;;;;;;;;5020274;28;20490;-74
2022/07/01 02:23:10;;;;;;;13.25;5.88;;;;;;;;;;5023312;28;20041;-74
2022/07/01 02:25:37;;;;;;;12.27;5.65;;;;;;;;;;5025895;28;20076;-74
2022/07/01 02:28:04;;;;;;;15.75;5.70;;;;;;;;;;5029839;28;20049;-77
2022/07/01 02:30:31;;;;;;;13.70;5.32;;;;;;;;;;5022982;28;20080;-75
2022/07/01 02:32:57;;;;;;;12.85;5.13;;;;;;;;;;5028642;28;20030;-74
2022/07/01 02:35:23;;;;;;;14.23;5.80;;;;;;;;;;5020997;28;20021;-75
2022/07/01 02:37:49;;;;;;;14.73;5.50;;;;;;;;;;5018714;28;20105;-74
2022/07/01 02:40:15;;;;;;;13.10;6.35;;;;;;;;;;5028038;28;20028;-75
2022/07/01 02:42:41;;;;;;;10.35;5.80;;;;;;;;;;5025143;28;20048;-75
2022/07/01 02:45:10;;;;;;;11.82;6.28;;;;;;;;;;5017293;28;20033;-75
2022/07/01 02:47:37;;;;;;;15.02;5.82;;;;;;;;;;5028598;28;20470;-74
2022/07/01 02:50:04;;;;;;;13.63;5.80;;;;;;;;;;5026068;28;20037;-75
2022/07/01 02:52:30;;;;;;;11.30;5.60;;;;;;;;;;5025869;28;20033;-74
2022/07/01 02:54:56;;;;;;;17.58;6.22;;;;;;;;;;5021700;28;20053;-76
2022/07/01 02:57:23;;;;;;;10.13;5.38;;;;;;;;;;5024808;28;20022;-74
2022/07/01 02:59:50;;;;;;;15.02;5.97;;;;;;;;;;5023948;28;20034;-75
2022/07/01 03:02:17;;;;;;;13.25;6.32;;;;;;;;;;5020210;28;20052;-74
2022/07/01 03:04:44;;;;;;;11.55;5.47;;;;;;;;;;5032203;28;20103;-74
2022/07/01 03:07:10;;;;;;;12.80;5.80;;;;;;;;;;5026793;28;20018;-74
2022/07/01 03:09:36;;;;;;;12.18;5.78;;;;;;;;;;5027495;28;20030;-77
2022/07/01 03:12:24;;;;;;;12.18;5.80;;;;;;;;;;5026739;28;20073;-75
2022/07/01 03:14:51;;;;;;;12.82;6.15;;;;;;;;;;5025631;28;20022;-76
2022/07/01 03:17:17;;;;;;;17.17;6.50;;;;;;;;;;5024373;28;20479;-73
2022/07/01 03:19:43;;;;;;;14.07;5.88;;;;;;;;;;5026569;28;20685;-73
2022/07/01 03:22:10;;;;;;;17.85;6.72;;;;;;;;;;5028005;28;20132;-75
2022/07/01 03:24:36;;;;;;;14.65;6.03;;;;;;;;;;5009786;28;20399;-76
2022/07/01 03:27:03;;;;;;;10.35;6.07;;;;;;;;;;5031162;28;20029;-75
2022/07/01 03:29:29;;;;;;;12.52;6.65;;;;;;;;;;5033095;28;20483;-76
2022/07/01 03:31:56;;;;;;;11.85;6.72;;;;;;;;;;5023934;28;20128;-75
2022/07/01 03:34:22;;;;;;;11.10;5.75;;;;;;;;;;5019279;28;20029;-75
2022/07/01 03:36:48;;;;;;;17.38;6.35;;;;;;;;;;5032907;28;20036;-75
2022/07/01 03:39:14;;;;;;;14.85;6.43;;;;;;;;;;5025431;28;20026;-74
2022/07/01 03:41:40;;;;;;;13.43;6.63;;;;;;;;;;5030506;28;20021;-73
2022/07/01 03:44:06;;;;;;;11.60;6.13;;;;;;;;;;5024797;28;20064;-73
2022/07/01 03:46:34;;;;;;;9.23;5.78;;;;;;;;;;5030474;28;20331;-72
2022/07/01 03:49:00;;;;;;;14.40;6.47;;;;;;;;;;5032546;28;20018;-73
2022/07/01 03:51:26;;;;;;;14.10;6.00;;;;;;;;;;5032688;28;20041;-73
2022/07/01 03:56:36;;;;;;;14.20;6.60;;;;;;;;;;5030735;28;20506;-74
2022/07/01 03:59:02;;;;;;;12.73;6.10;;;;;;;;;;5027702;28;20080;-74
2022/07/01 04:01:29;;;;;;;15.27;5.75;;;;;;;;;;5020977;28;20061;-75
2022/07/01 04:03:55;;;;;;;14.68;6.50;;;;;;;;;;5022554;28;20054;-74
2022/07/01 04:06:21;;;;;;;14.30;6.20;;;;;;;;;;5021937;28;20041;-74
2022/07/01 04:08:47;;;;;;;10.32;6.20;;;;;;;;;;5027063;28;20367;-75
2022/07/01 04:11:14;;;;;;;14.20;6.22;;;;;;;;;;5017175;28;20041;-78
2022/07/01 04:13:40;;;;;;;15.95;6.22;;;;;;;;;;5009786;28;20045;-74
2022/07/01 04:16:06;;;;;;;28.80;7.70;;;;;;;;;;5020824;28;20032;-75
2022/07/01 04:18:33;;;;;;;23.15;6.75;;;;;;;;;;5027900;28;20040;-80
2022/07/01 04:23:44;;;;;;;19.42;7.18;;;;;;;;;;5026788;28;20044;-72
2022/07/01 04:26:10;;;;;;;13.07;6.70;;;;;;;;;;5030913;28;20031;-72
2022/07/01 04:28:36;;;;;;;14.40;6.55;;;;;;;;;;5029554;28;20402;-80
2022/07/01 04:31:02;;;;;;;10.25;6.43;;;;;;;;;;5024199;28;20034;-76
2022/07/01 04:33:28;;;;;;;13.60;6.60;;;;;;;;;;5023584;28;20022;-80
2022/07/01 04:35:54;;;;;;;14.95;6.28;;;;;;;;;;5025591;28;20026;-74
2022/07/01 04:38:20;;;;;;;14.80;7.07;;;;;;;;;;5022785;28;20014;-78
2022/07/01 04:43:31;;;;;;;15.98;6.78;;;;;;;;;;5029693;28;20093;-77
2022/07/01 04:45:57;;;;;;;13.82;6.40;;;;;;;;;;5023640;28;20021;-75
2022/07/01 04:48:23;;;;;;;11.10;6.65;;;;;;;;;;5030534;28;20096;-78
2022/07/01 04:50:49;;;;;;;10.55;6.30;;;;;;;;;;5032506;28;20495;-74
2022/07/01 04:53:15;;;;;;;13.18;5.93;;;;;;;;;;5029928;28;20022;-77
2022/07/01 04:55:41;;;;;;;13.88;6.47;;;;;;;;;;5032590;28;20029;-77
2022/07/01 04:58:07;;;;;;;18.00;6.75;;;;;;;;;;5027022;28;20017;-80
2022/07/01 05:00:33;;;;;;;14.27;6.53;;;;;;;;;;5032635;28;20026;-81
2022/07/01 05:03:00;;;;;;;14.50;6.55;;;;;;;;;;5021918;28;20030;-81
2022/07/01 05:05:26;;;;;;;14.60;6.60;;;;;;;;;;5029156;28;20471;-79
2022/07/01 05:07:52;;;;;;;16.85;6.32;;;;;;;;;;5022663;28;20070;-78
2022/07/01 05:10:18;;;;;;;53.55;8.07;;;;;;;;;;5025144;28;20131;-73
2022/07/01 05:12:44;;;;;;;20.73;7.07;;;;;;;;;;5020313;28;20106;-72
2022/07/01 05:15:10;;;;;;;18.23;7.10;;;;;;;;;;5025375;28;20018;-73
2022/07/01 05:23:05;;;;;;;22.88;7.47;;;;;;;;;;5028627;28;20125;-73
2022/07/01 05:25:31;;;;;;;16.58;7.55;;;;;;;;;;5023563;28;20030;-72
2022/07/01 05:27:57;;;;;;;18.38;7.10;;;;;;;;;;5024656;28;20422;-74
2022/07/01 05:30:23;;;;;;;20.55;6.57;;;;;;;;;;5026916;28;20029;-72
2022/07/01 05:32:50;;;;;;;26.25;6.75;;;;;;;;;;5024808;28;20839;-71
2022/07/01 05:35:16;;;;;;;16.70;6.97;;;;;;;;;;5030703;28;20490;-74
2022/07/01 05:37:42;;;;;;;15.63;5.70;;;;;;;;;;5012171;28;20034;-74
2022/07/01 05:40:08;;;;;;;20.08;6.03;;;;;;;;;;5027387;28;20032;-73
2022/07/01 05:42:34;;;;;;;13.35;6.00;;;;;;;;;;5024099;28;20111;-72
2022/07/01 05:45:00;;;;;;;19.05;7.03;;;;;;;;;;5010278;28;20032;-74
2022/07/01 05:47:27;;;;;;;11.27;5.82;;;;;;;;;;5019000;28;20121;-72
2022/07/01 05:49:53;;;;;;;15.20;6.82;;;;;;;;;;5017089;28;20034;-72
2022/07/01 05:52:19;;;;;;;21.00;7.65;;;;;;;;;;5016615;28;20022;-73
2022/07/01 05:54:45;;;;;;;18.63;6.38;;;;;;;;;;5003370;28;20033;-71
2022/07/01 05:57:12;;;;;;;18.67;6.93;;;;;;;;;;5022116;28;20411;-71
2022/07/01 05:59:40;;;;;;;20.83;6.97;;;;;;;;;;5020751;28;20111;-72
2022/07/01 06:02:06;;;;;;;20.25;6.25;;;;;;;;;;5024092;28;20026;-72
2022/07/01 06:04:33;;;;;;;19.27;7.22;;;;;;;;;;5008799;28;20054;-72
2022/07/01 06:06:59;;;;;;;13.23;6.03;;;;;;;;;;5028483;28;20109;-70
2022/07/01 06:09:26;;;;;;;12.27;5.53;;;;;;;;;;5028743;28;20026;-72
2022/07/01 06:11:52;;;;;;;14.82;5.60;;;;;;;;;;5024686;28;20098;-73
2022/07/01 06:14:18;;;;;;;13.77;5.53;;;;;;;;;;5010009;28;20025;-73
2022/07/01 06:16:44;;;;;;;13.73;5.78;;;;;;;;;;5026645;28;20034;-77
2022/07/01 06:19:10;;;;;;;16.60;6.47;;;;;;;;;;5027100;28;20080;-79
2022/07/01 06:21:36;;;;;;;19.73;6.47;;;;;;;;;;5028509;28;20555;-74
2022/07/01 06:24:05;;;;;;;14.65;6.45;;;;;;;;;;5029672;28;20534;-73
2022/07/01 06:26:32;;;;;;;19.63;6.80;;;;;;;;;;5034560;28;20037;-72
2022/07/01 06:28:58;;;;;;;15.02;5.70;;;;;;;;;;5025651;28;20030;-72
2022/07/01 06:31:24;;;;;;;16.98;7.18;;;;;;;;;;5027574;28;20037;-72
2022/07/01 06:33:50;;;;;;;20.45;5.93;;;;;;;;;;5019742;28;20029;-73
2022/07/01 06:36:16;;;;;;;14.05;5.13;;;;;;;;;;5026015;28;20033;-78
2022/07/01 06:38:42;;;;;;;16.02;6.18;;;;;;;;;;5028893;28;20022;-76
2022/07/01 06:41:27;;;;;;;26.35;6.13;;;;;;;;;;5030456;28;20034;-74
2022/07/01 06:43:56;;;;;;;17.30;5.97;;;;;;;;;;5017510;28;20804;-73
2022/07/01 06:46:23;;;;;;;20.33;6.30;;;;;;;;;;5018894;28;20040;-73
2022/07/01 06:48:49;;;;;;;26.08;6.78;;;;;;;;;;5030903;28;20060;-74
2022/07/01 06:51:15;;;;;;;22.52;6.53;;;;;;;;;;5028063;28;20041;-71
2022/07/01 06:53:44;;;;;;;24.00;6.57;;;;;;;;;;5028401;28;20037;-73
2022/07/01 06:56:11;;;;;;;11.63;5.60;;;;;;;;;;5031794;28;20033;-72
2022/07/01 06:58:37;;;;;;;28.45;7.28;;;;;;;;;;5028730;28;20537;-72
2022/07/01 07:01:04;;;;;;;27.63;6.63;;;;;;;;;;5019443;28;20030;-74
2022/07/01 07:03:32;;;;;;;16.85;6.72;;;;;;;;;;5022701;28;20542;-77
2022/07/01 07:06:00;;;;;;;23.65;6.78;;;;;;;;;;5025805;28;20382;-77
2022/07/01 07:08:26;;;;;;;16.88;6.63;;;;;;;;;;5031937;28;20553;-78
2022/07/01 07:10:52;;;;;;;32.45;7.57;;;;;;;;;;5027631;28;20087;-76
2022/07/01 07:13:19;;;;;;;13.63;6.18;;;;;;;;;;5027882;28;20534;-75
2022/07/01 07:15:45;;;;;;;19.88;7.18;;;;;;;;;;5023540;28;20057;-81
2022/07/01 07:18:11;;;;;;;17.13;6.22;;;;;;;;;;5027252;28;20036;-72
2022/07/01 07:20:37;;;;;;;22.90;7.05;;;;;;;;;;5029793;28;20502;-72
2022/07/01 07:23:03;;;;;;;22.88;7.00;;;;;;;;;;5029155;28;20446;-82
2022/07/01 07:25:29;;;;;;;15.00;6.90;;;;;;;;;;5027514;28;20028;-73
2022/07/01 07:27:56;;;;;;;21.30;6.90;;;;;;;;;;5025484;28;20030;-76
2022/07/01 07:30:22;;;;;;;30.60;7.78;;;;;;;;;;5022815;28;20160;-72
2022/07/01 07:32:48;;;;;;;23.25;7.10;;;;;;;;;;5026621;28;20022;-73
2022/07/01 07:35:14;;;;;;;13.82;6.95;;;;;;;;;;5023454;28;20030;-80
2022/07/01 07:37:40;;;;;;;22.38;7.45;;;;;;;;;;5017525;28;20022;-76
2022/07/01 07:40:09;;;;;;;12.52;6.47;;;;;;;;;;5032201;28;20036;-78
2022/07/01 07:42:36;;;;;;;20.25;7.22;;;;;;;;;;5028274;28;20384;-78
2022/07/01 07:45:02;;;;;;;19.08;7.50;;;;;;;;;;5029154;28;20028;-80
2022/07/01 07:47:29;;;;;;;16.42;7.65;;;;;;;;;;5022774;28;20103;-77
2022/07/01 07:49:55;;;;;;;15.23;7.50;;;;;;;;;;5023094;28;20029;-75
2022/07/01 07:52:21;;;;;;;20.00;8.02;;;;;;;;;;5026746;28;20030;-79
2022/07/01 07:54:47;;;;;;;18.10;7.82;;;;;;;;;;5027618;28;20511;-77
2022/07/01 07:57:13;;;;;;;24.63;8.70;;;;;;;;;;5022853;28;20494;-74
2022/07/01 07:59:39;;;;;;;20.23;8.32;;;;;;;;;;5026415;28;20033;-78
2022/07/01 08:02:05;;;;;;;20.60;8.00;;;;;;;;;;5029964;28;20115;-74
2022/07/01 08:04:31;;;;;;;19.23;7.80;;;;;;;;;;5024542;28;20057;-75
2022/07/01 08:06:58;;;;;;;19.33;8.70;;;;;;;;;;5026129;28;20022;-75
2022/07/01 08:09:24;;;;;;;22.50;8.27;;;;;;;;;;5027302;28;20022;-73
2022/07/01 08:11:50;;;;;;;19.15;8.48;;;;;;;;;;5023466;28;20120;-72
2022/07/01 08:14:16;;;;;;;17.60;8.38;;;;;;;;;;5030353;28;20026;-74
2022/07/01 08:16:42;;;;;;;28.77;8.60;;;;;;;;;;5021689;28;20029;-73
2022/07/01 08:19:08;;;;;;;26.48;9.02;;;;;;;;;;5035969;28;20021;-72
2022/07/01 08:21:35;;;;;;;16.48;8.35;;;;;;;;;;5031729;28;20041;-73
2022/07/01 08:24:01;;;;;;;19.65;8.45;;;;;;;;;;5032077;28;20037;-79
2022/07/01 08:26:27;;;;;;;20.15;9.30;;;;;;;;;;5008725;28;20372;-71
2022/07/01 08:28:53;;;;;;;83.22;12.43;;;;;;;;;;5020067;28;20088;-76
2022/07/01 08:31:19;;;;;;;23.77;8.77;;;;;;;;;;5028496;28;20029;-72
2022/07/01 08:33:45;;;;;;;36.38;9.70;;;;;;;;;;5027209;28;20044;-73
2022/07/01 08:36:13;;;;;;;26.40;9.50;;;;;;;;;;5028927;28;20490;-73
2022/07/01 08:38:41;;;;;;;17.48;7.82;;;;;;;;;;5008742;28;20422;-70
2022/07/01 08:41:07;;;;;;;21.13;9.13;;;;;;;;;;4995021;28;20025;-70
2022/07/01 08:43:33;;;;;;;17.38;8.00;;;;;;;;;;5029216;28;20026;-70
2022/07/01 08:46:02;;;;;;;16.10;8.30;;;;;;;;;;5031134;28;20029;-70
2022/07/01 08:48:29;;;;;;;18.70;8.38;;;;;;;;;;5025538;28;20050;-70
2022/07/01 08:50:56;;;;;;;17.83;8.18;;;;;;;;;;5029629;28;20104;-70
2022/07/01 08:53:22;;;;;;;25.52;9.00;;;;;;;;;;5025274;28;20033;-69
2022/07/01 08:58:36;;;;;;;20.20;7.93;;;;;;;;;;5022099;28;20505;-70
2022/07/01 09:01:13;;;;;;;15.90;7.53;;;;;;;;;;5026173;28;20026;-69
2022/07/01 09:03:40;;;;;;;14.50;7.03;;;;;;;;;;5028396;28;20057;-69
2022/07/01 09:06:12;;;;;;;16.10;7.72;;;;;;;;;;5027297;28;20379;-71
2022/07/01 09:08:38;;;;;;;17.25;7.35;;;;;;;;;;5030148;28;20030;-69
2022/07/01 09:11:17;;;;;;;13.75;7.15;;;;;;;;;;5028268;28;20442;-71
2022/07/01 09:13:46;;;;;;;14.32;7.00;;;;;;;;;;5022193;28;20032;-69
2022/07/01 09:16:16;;;;;;;19.67;7.45;;;;;;;;;;5029749;28;20026;-70
2022/07/01 09:19:02;;;;;;;13.15;6.18;;;;;;;;;;5030330;28;20057;-70
2022/07/01 09:21:32;;;;;;;14.50;6.15;;;;;;;;;;5030959;28;20040;-69
2022/07/01 09:23:59;;;;;;;13.15;6.93;;;;;;;;;;5017515;28;20486;-70
2022/07/01 09:26:27;;;;;;;18.00;7.05;;;;;;;;;;5028319;28;20125;-69
2022/07/01 09:28:56;;;;;;;13.00;6.32;;;;;;;;;;5029028;28;20025;-69
2022/07/01 09:31:23;;;;;;;14.77;7.35;;;;;;;;;;5014098;28;20045;-70
2022/07/01 09:34:07;;;;;;;15.38;7.38;;;;;;;;;;5026936;28;20029;-69
2022/07/01 09:36:33;;;;;;;13.23;6.80;;;;;;;;;;5030340;28;20120;-71
2022/07/01 09:39:06;;;;;;;15.77;6.60;;;;;;;;;;5010935;28;20492;-71
2022/07/01 09:41:38;;;;;;;16.90;6.65;;;;;;;;;;5031942;28;20056;-69
2022/07/01 09:44:27;;;;;;;;;;;;;;;;;;;;;
2022/07/01 09:46:55;;;;;;;12.98;6.38;;;;;;;;;;5022298;28;20029;-70
2022/07/01 09:49:21;;;;;;;15.73;6.75;;;;;;;;;;5012500;28;20029;-73
2022/07/01 09:51:52;;;;;;;18.27;7.45;;;;;;;;;;5027969;28;20132;-71
2022/07/01 09:54:18;;;;;;;12.63;6.53;;;;;;;;;;5009735;28;20022;-70
2022/07/01 09:56:44;;;;;;;35.70;8.73;;;;;;;;;;5025254;28;20052;-70
2022/07/01 09:59:16;;;;;;;16.58;7.10;;;;;;;;;;5031814;28;20026;-69
2022/07/01 10:01:44;;;;;;;18.23;7.57;;;;;;;;;;5027258;28;20064;-69
2022/07/01 10:04:11;;;;;;;18.50;7.53;;;;;;;;;;5023754;28;20374;-71
2022/07/01 10:06:43;;;;;;;14.98;7.55;;;;;;;;;;5031828;28;20060;-69
2022/07/01 10:09:31;;;;;;;16.33;7.30;;;;;;;;;;5009498;28;20034;-69
2022/07/01 10:12:06;;;;;;;19.25;7.43;;;;;;;;;;5029057;28;20407;-70
2022/07/01 10:14:33;;;;;;;14.48;7.05;;;;;;;;;;5012675;28;20061;-69
2022/07/01 10:17:03;;;;;;;16.85;6.97;;;;;;;;;;5012847;28;20570;-69
2022/07/01 10:19:31;;;;;;;12.13;7.22;;;;;;;;;;5009819;28;20029;-69
2022/07/01 10:22:00;;;;;;;16.98;7.55;;;;;;;;;;5012516;28;20025;-70
2022/07/01 10:24:27;;;;;;;14.43;7.35;;;;;;;;;;5031702;28;20028;-69
2022/07/01 10:26:59;;;;;;;13.98;7.18;;;;;;;;;;5005675;28;20036;-70
2022/07/01 10:29:33;;;;;;;10.98;6.75;;;;;;;;;;5024773;28;20129;-69
2022/07/01 10:32:02;;;;;;;15.80;6.50;;;;;;;;;;5008073;28;20104;-70
2022/07/01 10:34:41;;;;;;;17.50;7.20;;;;;;;;;;5020990;28;20026;-70
2022/07/01 10:37:09;;;;;;;13.35;6.68;;;;;;;;;;5013822;28;20022;-69
2022/07/01 10:39:54;;;;;;;16.85;6.95;;;;;;;;;;5032001;28;20037;-70
2022/07/01 10:42:20;;;;;;;16.10;6.80;;;;;;;;;;5021219;28;20028;-72
2022/07/01 10:45:10;;;;;;;17.10;7.18;;;;;;;;;;5010156;28;20053;-70
2022/07/01 10:47:37;;;;;;;16.92;7.00;;;;;;;;;;5027931;28;20044;-74
2022/07/01 10:50:15;;;;;;;10.65;6.07;;;;;;;;;;5035441;28;20026;-70
2022/07/01 10:52:58;;;;;;;11.48;6.15;;;;;;;;;;5035222;28;20083;-71
2022/07/01 10:55:24;;;;;;;;;;;;;;;;;;5028845;28;20349;-71
2022/07/01 10:57:54;;;;;;;13.27;6.35;;;;;;;;;;5027004;28;19916;-70
2022/07/01 11:00:20;;;;;;;13.70;6.18;;;;;;;;;;5015368;28;20064;-70
2022/07/01 11:02:52;;;;;;;11.18;6.07;;;;;;;;;;5032680;28;20068;-71
2022/07/01 11:05:22;;;;;;;11.75;5.60;;;;;;;;;;5008603;28;20084;-70
2022/07/01 11:07:48;;;;;;;10.90;6.00;;;;;;;;;;5003276;28;20061;-68
2022/07/01 11:10:19;;;;;;;18.83;6.18;;;;;;;;;;5030693;28;20025;-70
2022/07/01 11:12:51;;;;;;;10.30;5.40;;;;;;;;;;5027186;28;20084;-69
2022/07/01 11:15:17;;;;;;;13.90;5.47;;;;;;;;;;5030147;28;20440;-70
2022/07/01 11:17:44;;;;;;;14.40;6.13;;;;;;;;;;5010508;28;20387;-70
2022/07/01 11:20:11;;;;;;;10.23;5.97;;;;;;;;;;5034176;28;20017;-71
2022/07/01 11:22:37;;;;;;;17.45;5.95;;;;;;;;;;5034536;28;20036;-71
2022/07/01 11:25:04;;;;;;;17.17;6.28;;;;;;;;;;5021850;28;20025;-70
2022/07/01 11:27:31;;;;;;;17.55;6.45;;;;;;;;;;5032186;28;20037;-70
2022/07/01 11:29:58;;;;;;;13.57;6.00;;;;;;;;;;5020522;28;20109;-71
2022/07/01 11:32:31;;;;;;;12.32;5.53;;;;;;;;;;5033992;28;20033;-70
2022/07/01 11:34:59;;;;;;;12.02;5.68;;;;;;;;;;5008818;28;20132;-70
2022/07/01 11:40:19;;;;;;;12.15;5.10;;;;;;;;;;5029252;28;20048;-70
2022/07/01 11:42:48;;;;;;;9.63;5.40;;;;;;;;;;5010389;28;20041;-71
2022/07/01 11:45:31;;;;;;;13.82;5.82;;;;;;;;;;5013259;28;20112;-69
2022/07/01 11:47:58;;;;;;;10.48;5.75;;;;;;;;;;5026702;28;20065;-69
2022/07/01 11:50:31;;;;;;;10.88;5.78;;;;;;;;;;5030716;28;20038;-69
2022/07/01 11:52:58;;;;;;;15.32;6.80;;;;;;;;;;4997181;28;20173;-75
2022/07/01 11:55:24;;;;;;;13.23;6.07;;;;;;;;;;5031618;28;20017;-78
2022/07/01 11:57:52;;;;;;;15.07;7.35;;;;;;;;;;5023722;28;20034;-79
2022/07/01 12:00:18;;;;;;;12.90;5.30;;;;;;;;;;5031074;28;20060;-80
2022/07/01 12:02:44;;;;;;;11.57;5.30;;;;;;;;;;5023040;28;20077;-76
2022/07/01 12:05:10;;;;;;;12.68;4.72;;;;;;;;;;5029492;28;20113;-74
2022/07/01 12:07:36;;;;;;;15.88;5.57;;;;;;;;;;5029929;28;20025;-74
2022/07/01 12:10:03;;;;;;;10.82;5.68;;;;;;;;;;5025655;28;20026;-77
2022/07/01 12:12:29;;;;;;;11.00;5.82;;;;;;;;;;5032808;28;20060;-71
2022/07/01 12:14:56;;;;;;;9.70;5.43;;;;;;;;;;5030679;28;20487;-74
2022/07/01 12:17:22;;;;;;;10.52;5.93;;;;;;;;;;5014635;28;20073;-72
2022/07/01 12:19:49;;;;;;;10.10;5.53;;;;;;;;;;5029833;28;20391;-82
2022/07/01 12:22:18;;;;;;;11.82;6.05;;;;;;;;;;5026637;28;20033;-74
2022/07/01 12:24:44;;;;;;;9.55;5.55;;;;;;;;;;5027302;28;20034;-74
2022/07/01 12:27:10;;;;;;;15.75;5.72;;;;;;;;;;5004653;28;20026;-72
2022/07/01 12:29:53;;;;;;;10.75;5.65;;;;;;;;;;5027597;28;20057;-73
2022/07/01 12:32:22;;;;;;;11.63;5.50;;;;;;;;;;5026749;28;20452;-75
2022/07/01 12:35:01;;;;;;;14.48;5.78;;;;;;;;;;5024225;28;20117;-73
2022/07/01 12:37:34;;;;;;;13.80;6.38;;;;;;;;;;5038949;28;20104;-75
2022/07/01 12:40:03;;;;;;;10.32;5.72;;;;;;;;;;5031011;28;20103;-79
2022/07/01 12:42:34;;;;;;;12.70;6.28;;;;;;;;;;5025289;28;20029;-70
2022/07/01 12:45:01;;;;;;;14.68;6.93;;;;;;;;;;5024069;28;20091;-70
2022/07/01 12:47:29;;;;;;;11.52;5.90;;;;;;;;;;5018616;28;20116;-75
2022/07/01 12:50:10;;;;;;;12.95;6.45;;;;;;;;;;5025278;28;20100;-73
2022/07/01 12:52:37;;;;;;;13.82;5.90;;;;;;;;;;5028121;28;20490;-88
2022/07/01 12:55:21;;;;;;;11.75;5.68;;;;;;;;;;5015969;28;20387;-87
2022/07/01 12:57:48;;;;;;;11.52;6.28;;;;;;;;;;5014529;28;20049;-93
2022/07/01 13:00:15;;;;;;;17.52;6.97;;;;;;;;;;5007977;28;20052;-86
2022/07/01 13:02:41;;;;;;;11.75;6.80;;;;;;;;;;5025415;28;20117;-87
2022/07/01 13:05:08;;;;;;;11.20;6.43;;;;;;;;;;5022320;28;20132;-77
2022/07/01 13:07:34;;;;;;;13.63;5.90;;;;;;;;;;5029024;28;20044;-76
2022/07/01 13:10:00;;;;;;;16.05;6.60;;;;;;;;;;4998481;28;20380;-88
2022/07/01 13:12:26;;;;;;;15.82;6.82;;;;;;;;;;5031410;28;20040;-72
2022/07/01 13:14:52;;;;;;;12.05;6.13;;;;;;;;;;5030353;28;20033;-76
2022/07/01 13:17:20;;;;;;;17.70;6.10;;;;;;;;;;5011432;28;20553;-79
2022/07/01 13:19:47;;;;;;;10.07;5.55;;;;;;;;;;5028360;28;20044;-92
2022/07/01 13:22:13;;;;;;;12.95;5.75;;;;;;;;;;5006197;28;20033;-92
2022/07/01 13:24:39;;;;;;;12.23;6.35;;;;;;;;;;5025275;28;20521;-86
2022/07/01 13:27:05;;;;;;;10.73;5.78;;;;;;;;;;5031030;28;20033;-78
2022/07/01 13:29:31;;;;;;;27.02;6.82;;;;;;;;;;5030052;28;20494;-81
2022/07/01 13:31:57;;;;;;;9.60;5.20;;;;;;;;;;5027204;28;20061;-85
2022/07/01 13:34:23;;;;;;;10.20;5.50;;;;;;;;;;5023533;28;20025;-76
2022/07/01 13:36:50;;;;;;;11.63;6.20;;;;;;;;;;5024187;28;20026;-82
2022/07/01 13:39:16;;;;;;;10.38;5.47;;;;;;;;;;5027125;28;20029;-82
2022/07/01 13:41:46;;;;;;;11.13;5.82;;;;;;;;;;5022467;28;20503;-82
2022/07/01 13:44:12;;;;;;;12.25;6.13;;;;;;;;;;5018009;28;20076;-77
2022/07/01 13:46:39;;;;;;;16.75;6.25;;;;;;;;;;5025369;28;20029;-73
2022/07/01 13:49:05;;;;;;;14.20;5.88;;;;;;;;;;5026258;28;20030;-78
2022/07/01 13:51:31;;;;;;;11.18;5.80;;;;;;;;;;5024859;28;20037;-74
2022/07/01 13:53:58;;;;;;;16.20;9.05;;;;;;;;;;5028653;28;20021;-78
2022/07/01 13:56:25;;;;;;;15.65;5.82;;;;;;;;;;5022089;28;20034;-74
2022/07/01 13:58:52;;;;;;;15.20;6.55;;;;;;;;;;5018706;28;20376;-81
2022/07/01 14:01:19;;;;;;;10.63;6.10;;;;;;;;;;5024661;28;20387;-74
2022/07/01 14:03:46;;;;;;;11.13;5.88;;;;;;;;;;5024294;28;20037;-77
2022/07/01 14:06:12;;;;;;;13.43;6.28;;;;;;;;;;5024161;28;20053;-82
2022/07/01 14:08:38;;;;;;;13.95;6.50;;;;;;;;;;5027705;28;20021;-81
2022/07/01 14:11:04;;;;;;;13.82;6.40;;;;;;;;;;5017778;28;20045;-72
2022/07/01 14:13:31;;;;;;;22.10;6.95;;;;;;;;;;5022065;28;20099;-76
2022/07/01 14:15:57;;;;;;;10.88;6.38;;;;;;;;;;5020957;28;20037;-76
2022/07/01 14:18:23;;;;;;;13.65;6.30;;;;;;;;;;5023325;28;20022;-74
2022/07/01 14:20:49;;;;;;;17.23;6.50;;;;;;;;;;5027220;28;20061;-71
2022/07/01 14:23:15;;;;;;;11.73;6.07;;;;;;;;;;5016681;28;20172;-75
2022/07/01 14:25:43;;;;;;;14.65;6.30;;;;;;;;;;5023996;28;20026;-74
2022/07/01 14:28:09;;;;;;;14.80;7.22;;;;;;;;;;5027101;28;20021;-71
2022/07/01 14:30:35;;;;;;;15.07;6.68;;;;;;;;;;5031589;28;20124;-74
2022/07/01 14:33:01;;;;;;;13.23;5.97;;;;;;;;;;5030638;28;20140;-72
2022/07/01 14:35:28;;;;;;;16.30;7.18;;;;;;;;;;5035440;28;20113;-72
2022/07/01 14:37:54;;;;;;;11.82;6.78;;;;;;;;;;5030171;28;20029;-75
2022/07/01 14:40:20;;;;;;;11.60;6.28;;;;;;;;;;5025684;28;20476;-73
2022/07/01 14:42:46;;;;;;;12.38;6.22;;;;;;;;;;5026887;28;20033;-72
2022/07/01 14:45:13;;;;;;;8.80;6.07;;;;;;;;;;5018569;28;20022;-72
2022/07/01 14:47:43;;;;;;;14.82;6.93;;;;;;;;;;5009108;28;20521;-71
2022/07/01 14:50:09;;;;;;;11.57;6.55;;;;;;;;;;5025460;28;20021;-71
2022/07/01 14:52:35;;;;;;;13.32;6.68;;;;;;;;;;5030788;28;20888;-72